createdAt,value
2022-08-22T00:00:14.754Z,17.60
2022-08-22T00:03:03.385Z,19.10
2022-08-22T00:03:18.512Z,17.60
2022-08-22T00:06:08.113Z,17.60
2022-08-22T00:08:58.009Z,17.60
2022-08-22T00:11:50.100Z,17.60
2022-08-22T00:14:45.969Z,17.50
2022-08-22T00:17:31.617Z,17.50
2022-08-22T00:20:15.777Z,17.40
2022-08-22T00:23:13.720Z,17.40
2022-08-22T00:25:51.374Z,17.30
2022-08-22T00:28:34.076Z,17.20
2022-08-22T00:31:24.934Z,17.20
2022-08-22T00:34:13.047Z,17.10
2022-08-22T00:36:52.227Z,17.00
2022-08-22T00:39:38.832Z,17.00
2022-08-22T00:42:33.708Z,17.00
2022-08-22T00:45:06.782Z,17.00
2022-08-22T00:47:42.593Z,17.00
2022-08-22T00:50:31.372Z,17.00
2022-08-22T00:53:36.181Z,17.00
2022-08-22T00:56:27.716Z,17.00
2022-08-22T00:59:26.912Z,16.90
2022-08-22T01:02:28.105Z,16.90
2022-08-22T01:05:18.372Z,16.90
2022-08-22T01:07:56.618Z,16.90
2022-08-22T01:11:07.641Z,16.90
2022-08-22T01:14:04.789Z,16.90
2022-08-22T01:16:54.947Z,16.90
2022-08-22T01:19:33.780Z,16.90
2022-08-22T01:22:48.294Z,16.90
2022-08-22T01:25:56.789Z,16.90
2022-08-22T01:28:51.508Z,17.00
2022-08-22T01:31:47.916Z,17.00
2022-08-22T01:34:52.525Z,17.00
2022-08-22T01:37:43.619Z,17.00
2022-08-22T01:40:13.598Z,17.00
2022-08-22T01:43:16.990Z,17.00
2022-08-22T01:45:49.533Z,17.00
2022-08-22T01:48:34.605Z,17.00
2022-08-22T01:51:19.952Z,17.00
2022-08-22T01:54:04.708Z,17.00
2022-08-22T01:56:41.518Z,16.90
2022-08-22T01:59:13.903Z,16.90
2022-08-22T02:01:46.071Z,16.90
2022-08-22T02:04:28.757Z,16.80
2022-08-22T02:07:32.109Z,16.80
2022-08-22T02:10:41.080Z,16.90
2022-08-22T02:13:13.752Z,16.90
2022-08-22T02:15:40.443Z,16.90
2022-08-22T02:18:07.155Z,17.00
2022-08-22T02:21:03.358Z,17.00
2022-08-22T02:24:01.344Z,17.00
2022-08-22T02:26:50.102Z,17.00
2022-08-22T02:29:29.496Z,17.00
2022-08-22T02:32:08.390Z,17.00
2022-08-22T02:35:07.188Z,17.00
2022-08-22T02:37:33.886Z,17.00
2022-08-22T02:40:34.572Z,16.90
2022-08-22T02:43:07.699Z,16.90
2022-08-22T02:45:48.269Z,16.90
2022-08-22T02:48:30.024Z,16.90
2022-08-22T02:51:09.415Z,16.90
2022-08-22T02:53:49.769Z,16.80
2022-08-22T02:56:35.749Z,16.80
2022-08-22T02:59:30.385Z,16.80
2022-08-22T03:01:58.133Z,16.80
2022-08-22T03:04:47.864Z,16.80
2022-08-22T03:07:20.599Z,16.80
2022-08-22T03:10:10.401Z,16.80
2022-08-22T03:13:17.233Z,16.80
2022-08-22T03:15:59.761Z,16.80
2022-08-22T03:18:31.313Z,16.80
2022-08-22T03:21:35.450Z,16.80
2022-08-22T03:24:31.536Z,16.80
2022-08-22T03:27:02.549Z,16.80
2022-08-22T03:29:40.503Z,16.80
2022-08-22T03:32:09.758Z,16.70
2022-08-22T03:34:37.453Z,16.80
2022-08-22T03:37:21.193Z,16.70
2022-08-22T03:39:50.997Z,16.80
2022-08-22T03:43:00.127Z,16.80
2022-08-22T03:45:49.423Z,16.80
2022-08-22T03:48:31.241Z,16.80
2022-08-22T03:51:29.890Z,16.90
2022-08-22T03:54:17.924Z,16.90
2022-08-22T03:57:00.599Z,16.80
2022-08-22T03:59:42.702Z,16.80
2022-08-22T04:02:42.929Z,16.70
2022-08-22T04:05:38.321Z,16.70
2022-08-22T04:08:37.547Z,16.70
2022-08-22T04:11:32.621Z,16.70
2022-08-22T04:14:26.979Z,16.70
2022-08-22T04:17:06.324Z,16.70
2022-08-22T04:19:51.071Z,16.80
2022-08-22T04:22:53.329Z,16.80
2022-08-22T04:25:25.596Z,16.80
2022-08-22T04:28:05.604Z,16.90
2022-08-22T04:30:40.027Z,16.90
2022-08-22T04:33:12.376Z,16.90
2022-08-22T04:35:45.401Z,16.90
2022-08-22T04:38:33.189Z,17.00
2022-08-22T04:41:12.282Z,17.00
2022-08-22T04:43:54.716Z,17.00
2022-08-22T04:46:57.410Z,17.10
2022-08-22T04:49:31.717Z,17.10
2022-08-22T04:52:01.406Z,17.10
2022-08-22T04:55:00.589Z,17.10
2022-08-22T04:58:18.800Z,17.10
2022-08-22T05:01:09.256Z,17.10
2022-08-22T05:04:06.650Z,17.10
2022-08-22T05:06:38.705Z,17.10
2022-08-22T05:09:16.069Z,17.10
2022-08-22T05:11:45.829Z,17.20
2022-08-22T05:14:36.655Z,17.20
2022-08-22T05:17:07.437Z,17.20
2022-08-22T05:19:38.381Z,17.20
2022-08-22T05:22:13.569Z,17.20
2022-08-22T05:24:44.149Z,17.30
2022-08-22T05:27:24.065Z,17.30
2022-08-22T05:29:54.716Z,17.30
2022-08-22T05:32:30.899Z,17.40
2022-08-22T05:35:03.567Z,17.40
2022-08-22T05:37:39.098Z,17.50
2022-08-22T05:40:07.375Z,17.50
2022-08-22T05:42:37.588Z,17.60
2022-08-22T05:45:11.564Z,17.60
2022-08-22T05:47:44.935Z,17.70
2022-08-22T05:50:28.009Z,17.70
2022-08-22T05:53:21.569Z,17.80
2022-08-22T05:55:48.633Z,17.80
2022-08-22T05:59:00.360Z,17.90
2022-08-22T06:01:38.735Z,17.90
2022-08-22T06:04:21.820Z,17.90
2022-08-22T06:07:22.144Z,17.90
2022-08-22T06:09:48.825Z,18.00
2022-08-22T06:12:22.199Z,18.00
2022-08-22T06:15:11.886Z,18.00
2022-08-22T06:17:47.144Z,18.10
2022-08-22T06:20:25.771Z,18.10
2022-08-22T06:23:00.325Z,18.10
2022-08-22T06:25:37.621Z,18.10
2022-08-22T06:28:09.238Z,18.10
2022-08-22T06:30:39.538Z,18.20
2022-08-22T06:33:13.580Z,18.20
2022-08-22T06:36:07.947Z,18.30
2022-08-22T06:39:03.973Z,18.40
2022-08-22T06:41:33.880Z,18.50
2022-08-22T06:44:03.806Z,18.60
2022-08-22T06:46:34.265Z,18.60
2022-08-22T06:49:03.001Z,18.70
2022-08-22T06:51:30.511Z,18.80
2022-08-22T06:54:01.751Z,18.90
2022-08-22T06:56:38.715Z,19.00
2022-08-22T06:59:12.613Z,19.20
2022-08-22T07:02:03.668Z,19.40
2022-08-22T07:04:31.228Z,19.60
2022-08-22T07:07:01.419Z,19.70
2022-08-22T07:09:34.704Z,19.80
2022-08-22T07:12:10.265Z,19.90
2022-08-22T07:14:43.257Z,20.00
2022-08-22T07:17:26.461Z,20.10
2022-08-22T07:20:04.879Z,20.20
2022-08-22T07:22:35.718Z,20.20
2022-08-22T07:25:21.317Z,20.30
2022-08-22T07:28:19.529Z,20.50
2022-08-22T07:30:59.319Z,20.60
2022-08-22T07:33:42.374Z,20.80
2022-08-22T07:36:33.981Z,20.80
2022-08-22T07:39:17.702Z,20.90
2022-08-22T07:41:59.554Z,21.00
2022-08-22T07:44:38.525Z,21.10
2022-08-22T07:47:15.555Z,21.20
2022-08-22T07:49:54.173Z,21.30
2022-08-22T07:52:23.146Z,21.40
2022-08-22T07:55:01.768Z,21.50
2022-08-22T07:57:36.204Z,21.60
2022-08-22T08:00:11.241Z,21.70
2022-08-22T08:02:46.510Z,21.80
2022-08-22T08:05:14.401Z,21.90
2022-08-22T08:07:45.370Z,22.00
2022-08-22T08:10:21.488Z,22.10
2022-08-22T08:13:02.574Z,22.20
2022-08-22T08:15:34.286Z,22.30
2022-08-22T08:18:06.242Z,22.40
2022-08-22T08:20:36.454Z,22.50
2022-08-22T08:23:09.952Z,22.60
2022-08-22T08:26:08.805Z,22.70
2022-08-22T08:28:42.936Z,22.70
2022-08-22T08:31:32.650Z,22.80
2022-08-22T08:34:11.666Z,22.80
2022-08-22T08:36:59.709Z,22.90
2022-08-22T08:39:50.590Z,23.00
2022-08-22T08:42:32.581Z,23.10
2022-08-22T08:45:33.272Z,23.10
2022-08-22T08:48:27.189Z,23.30
2022-08-22T08:50:56.969Z,23.40
2022-08-22T08:53:49.457Z,23.40
2022-08-22T08:56:36.085Z,23.50
2022-08-22T08:59:24.001Z,23.50
2022-08-22T09:05:34.104Z,23.70
2022-08-22T09:08:38.989Z,23.80
2022-08-22T09:11:18.762Z,23.90
2022-08-22T09:14:00.083Z,23.90
2022-08-22T09:17:00.697Z,24.00
2022-08-22T09:19:42.586Z,24.10
2022-08-22T09:22:33.458Z,24.00
2022-08-22T09:25:39.188Z,24.10
2022-08-22T09:28:16.670Z,24.20
2022-08-22T09:31:16.935Z,24.40
2022-08-22T09:34:23.883Z,24.60
2022-08-22T09:37:21.605Z,24.90
2022-08-22T09:40:17.330Z,25.40
2022-08-22T09:42:59.889Z,25.90
2022-08-22T09:45:55.130Z,26.20
2022-08-22T09:48:41.631Z,26.40
2022-08-22T09:51:32.432Z,26.50
2022-08-22T09:54:14.446Z,26.50
2022-08-22T09:57:00.910Z,26.40
2022-08-22T09:59:42.605Z,26.40
2022-08-22T10:02:44.329Z,26.40
2022-08-22T10:05:40.572Z,26.40
2022-08-22T10:08:46.240Z,26.20
2022-08-22T10:11:31.893Z,26.20
2022-08-22T10:14:02.269Z,26.10
2022-08-22T10:17:07.189Z,26.00
2022-08-22T10:19:45.712Z,25.90
2022-08-22T10:22:31.391Z,25.90
2022-08-22T10:24:58.649Z,26.00
2022-08-22T10:27:46.649Z,26.00
2022-08-22T10:30:19.619Z,26.10
2022-08-22T10:33:01.680Z,26.10
2022-08-22T10:35:44.053Z,26.20
2022-08-22T10:38:29.055Z,26.10
2022-08-22T10:41:27.135Z,26.00
2022-08-22T10:44:01.503Z,25.90
2022-08-22T10:46:56.044Z,26.00
2022-08-22T10:49:37.489Z,26.00
2022-08-22T10:52:20.361Z,26.10
2022-08-22T10:54:52.514Z,26.20
2022-08-22T10:57:36.368Z,26.30
2022-08-22T11:00:27.028Z,26.30
2022-08-22T11:03:42.433Z,26.30
2022-08-22T11:06:24.151Z,26.40
2022-08-22T11:09:07.102Z,26.50
2022-08-22T11:11:42.584Z,26.70
2022-08-22T11:14:50.502Z,26.90
2022-08-22T11:17:39.751Z,27.00
2022-08-22T11:20:48.496Z,27.10
2022-08-22T11:23:24.322Z,27.10
2022-08-22T11:26:13.403Z,27.10
2022-08-22T11:29:14.207Z,27.30
2022-08-22T11:32:19.062Z,27.50
2022-08-22T11:35:13.808Z,27.80
2022-08-22T11:38:04.011Z,27.90
2022-08-22T11:41:08.096Z,27.80
2022-08-22T11:43:40.716Z,27.70
2022-08-22T11:46:20.045Z,27.60
2022-08-22T11:49:01.245Z,27.50
2022-08-22T11:51:52.725Z,27.50
2022-08-22T11:54:42.289Z,27.40
2022-08-22T11:57:20.412Z,27.30
2022-08-22T11:59:53.481Z,27.20
2022-08-22T12:03:02.075Z,27.30
2022-08-22T12:05:39.817Z,27.70
2022-08-22T12:08:13.527Z,28.10
2022-08-22T12:11:05.831Z,28.30
2022-08-22T12:13:51.071Z,28.40
2022-08-22T12:17:07.356Z,28.40
2022-08-22T12:20:14.618Z,28.10
2022-08-22T12:22:49.863Z,28.00
2022-08-22T12:25:52.847Z,27.60
2022-08-22T12:28:52.644Z,27.40
2022-08-22T12:31:50.145Z,27.20
2022-08-22T12:34:31.952Z,27.00
2022-08-22T12:37:06.539Z,27.00
2022-08-22T12:40:00.252Z,27.10
2022-08-22T12:42:46.799Z,27.20
2022-08-22T12:45:33.769Z,27.30
2022-08-22T12:48:57.956Z,27.30
2022-08-22T12:52:09.133Z,27.30
2022-08-22T12:55:04.686Z,27.40
2022-08-22T12:57:41.724Z,27.40
2022-08-22T13:00:22.958Z,27.40
2022-08-22T13:02:53.832Z,27.40
2022-08-22T13:05:38.362Z,27.40
2022-08-22T13:08:13.972Z,27.40
2022-08-22T13:10:58.212Z,27.30
2022-08-22T13:13:39.047Z,27.10
2022-08-22T13:16:17.557Z,27.20
2022-08-22T13:18:53.644Z,27.30
2022-08-22T13:21:26.245Z,27.40
2022-08-22T13:24:11.168Z,27.50
2022-08-22T13:26:52.523Z,27.50
2022-08-22T13:29:39.631Z,27.40
2022-08-22T13:32:18.923Z,27.50
2022-08-22T13:34:53.884Z,27.60
2022-08-22T13:37:44.252Z,27.80
2022-08-22T13:40:21.393Z,27.90
2022-08-22T13:42:54.155Z,27.90
2022-08-22T13:45:32.491Z,28.00
2022-08-22T13:48:03.547Z,28.00
2022-08-22T13:50:37.127Z,28.20
2022-08-22T13:53:31.996Z,28.30
2022-08-22T13:56:20.992Z,28.40
2022-08-22T13:58:57.997Z,28.50
2022-08-22T14:01:57.502Z,28.60
2022-08-22T14:04:36.244Z,28.50
2022-08-22T14:07:06.127Z,28.50
2022-08-22T14:09:59.975Z,28.60
2022-08-22T14:12:49.955Z,28.70
2022-08-22T14:15:23.582Z,28.80
2022-08-22T14:17:55.920Z,29.00
2022-08-22T14:20:32.238Z,29.00
2022-08-22T14:23:29.302Z,29.10
2022-08-22T14:25:57.387Z,29.20
2022-08-22T14:28:27.866Z,29.40
2022-08-22T14:31:04.151Z,29.50
2022-08-22T14:33:36.480Z,29.50
2022-08-22T14:36:17.896Z,29.60
2022-08-22T14:39:11.331Z,29.60
2022-08-22T14:41:52.854Z,29.70
2022-08-22T14:44:59.420Z,29.80
2022-08-22T14:47:55.069Z,29.90
2022-08-22T14:50:40.148Z,30.10
2022-08-22T14:53:22.260Z,30.30
2022-08-22T14:56:08.900Z,30.50
2022-08-22T14:59:02.825Z,30.70
2022-08-22T15:01:32.817Z,30.90
2022-08-22T15:04:04.917Z,31.10
2022-08-22T15:06:55.161Z,31.40
2022-08-22T15:09:24.849Z,32.40
2022-08-22T15:11:53.109Z,34.10
2022-08-22T15:14:28.073Z,36.00
2022-08-22T15:16:59.004Z,37.60
2022-08-22T15:19:25.663Z,39.00
2022-08-22T15:22:20.383Z,40.40
2022-08-22T15:24:56.304Z,41.60
2022-08-22T15:27:25.404Z,42.50
2022-08-22T15:29:59.514Z,43.30
2022-08-22T15:32:29.738Z,43.60
2022-08-22T15:35:05.868Z,44.00
2022-08-22T15:37:52.509Z,44.40
2022-08-22T15:40:33.865Z,44.80
2022-08-22T15:43:13.349Z,45.30
2022-08-22T15:45:42.778Z,45.70
2022-08-22T15:48:33.975Z,45.80
2022-08-22T15:51:10.228Z,46.10
2022-08-22T15:54:25.571Z,46.30
2022-08-22T15:56:52.806Z,46.70
2022-08-22T15:59:52.594Z,47.00
2022-08-22T16:02:55.765Z,47.30
2022-08-22T16:05:36.634Z,47.80
2022-08-22T16:08:18.164Z,47.60
2022-08-22T16:10:56.094Z,47.40
2022-08-22T16:13:29.540Z,47.20
2022-08-22T16:16:10.253Z,47.30
2022-08-22T16:18:39.800Z,47.60
2022-08-22T16:21:16.673Z,48.10
2022-08-22T16:23:46.457Z,48.40
2022-08-22T16:26:24.635Z,48.90
2022-08-22T16:28:59.039Z,49.50
2022-08-22T16:31:34.192Z,50.10
2022-08-22T16:34:19.020Z,50.60
2022-08-22T16:36:54.894Z,50.10
2022-08-22T16:39:21.529Z,48.90
2022-08-22T16:41:51.440Z,47.60
2022-08-22T16:44:30.321Z,45.90
2022-08-22T16:47:13.784Z,43.80
2022-08-22T16:49:49.616Z,41.40
2022-08-22T16:52:25.267Z,39.30
2022-08-22T16:55:01.173Z,38.00
2022-08-22T16:57:27.961Z,37.70
2022-08-22T17:00:22.958Z,37.10
2022-08-22T17:03:14.416Z,36.00
2022-08-22T17:05:54.748Z,34.80
2022-08-22T17:09:09.571Z,34.00
2022-08-22T17:11:54.827Z,33.50
2022-08-22T17:14:52.558Z,32.70
2022-08-22T17:17:57.045Z,32.00
2022-08-22T17:20:45.292Z,31.10
2022-08-22T17:23:11.992Z,30.50
2022-08-22T17:26:16.060Z,30.10
2022-08-22T17:29:09.361Z,29.90
2022-08-22T17:31:52.694Z,29.90
2022-08-22T17:34:33.575Z,29.90
2022-08-22T17:37:26.122Z,29.90
2022-08-22T17:40:20.366Z,30.00
2022-08-22T17:43:27.415Z,30.20
2022-08-22T17:46:21.214Z,31.70
2022-08-22T17:49:03.764Z,33.50
2022-08-22T17:51:33.172Z,34.90
2022-08-22T17:54:24.237Z,35.50
2022-08-22T17:57:11.947Z,35.80
2022-08-22T17:59:59.670Z,36.30
2022-08-22T18:02:39.220Z,36.60
2022-08-22T18:05:10.676Z,37.00
2022-08-22T18:08:03.198Z,37.00
2022-08-22T18:10:52.063Z,36.30
2022-08-22T18:13:56.584Z,35.70
2022-08-22T18:16:46.316Z,35.10
2022-08-22T18:19:42.654Z,34.30
2022-08-22T18:22:22.145Z,33.40
2022-08-22T18:25:13.129Z,32.10
2022-08-22T18:27:58.706Z,30.70
2022-08-22T18:30:50.601Z,29.20
2022-08-22T18:33:32.991Z,28.10
2022-08-22T18:36:09.022Z,27.10
2022-08-22T18:39:03.637Z,26.40
2022-08-22T18:41:57.748Z,25.70
2022-08-22T18:44:28.624Z,25.10
2022-08-22T18:47:20.555Z,24.60
2022-08-22T18:49:54.252Z,24.20
2022-08-22T18:52:27.282Z,23.70
2022-08-22T18:55:02.925Z,23.40
2022-08-22T18:57:57.899Z,23.00
2022-08-22T19:00:47.980Z,22.70
2022-08-22T19:03:51.449Z,22.40
2022-08-22T19:06:52.055Z,22.20
2022-08-22T19:09:49.773Z,22.00
2022-08-22T19:12:50.053Z,21.90
2022-08-22T19:15:59.437Z,21.80
2022-08-22T19:18:36.213Z,21.70
2022-08-22T19:21:43.911Z,21.60
2022-08-22T19:24:19.866Z,21.50
2022-08-22T19:27:08.529Z,21.30
2022-08-22T19:29:35.913Z,21.20
2022-08-22T19:32:05.918Z,21.20
2022-08-22T19:34:47.153Z,21.10
2022-08-22T19:37:32.574Z,21.00
2022-08-22T19:40:10.215Z,20.90
2022-08-22T19:42:40.358Z,20.80
2022-08-22T19:45:27.131Z,20.70
2022-08-22T19:48:14.583Z,20.60
2022-08-22T19:50:43.026Z,20.50
2022-08-22T19:53:51.169Z,20.50
2022-08-22T19:56:39.613Z,20.40
2022-08-22T19:59:20.357Z,20.40
2022-08-22T20:01:57.221Z,20.30
2022-08-22T20:04:42.694Z,20.30
2022-08-22T20:07:48.540Z,20.30
2022-08-22T20:11:02.893Z,20.30
2022-08-22T20:13:35.444Z,20.20
2022-08-22T20:16:22.234Z,20.20
2022-08-22T20:19:03.548Z,20.10
2022-08-22T20:22:13.609Z,20.00
2022-08-22T20:25:41.399Z,20.00
2022-08-22T20:28:03.046Z,19.80
2022-08-22T20:30:43.429Z,19.70
2022-08-22T20:33:23.393Z,19.60
2022-08-22T20:36:29.467Z,19.60
2022-08-22T20:39:08.161Z,19.50
2022-08-22T20:41:41.079Z,19.40
2022-08-22T20:44:20.515Z,19.30
2022-08-22T20:46:55.201Z,19.30
2022-08-22T20:49:35.936Z,19.30
2022-08-22T20:52:08.896Z,19.30
2022-08-22T20:54:38.887Z,19.30
2022-08-22T20:57:16.132Z,19.40
2022-08-22T20:59:58.721Z,19.50
2022-08-22T21:02:30.150Z,19.50
2022-08-22T21:05:04.257Z,19.70
2022-08-22T21:07:35.477Z,19.80
2022-08-22T21:10:42.444Z,19.90
2022-08-22T21:13:16.565Z,20.00
2022-08-22T21:15:52.969Z,20.00
2022-08-22T21:18:39.285Z,20.00
2022-08-22T21:21:20.517Z,19.90
2022-08-22T21:23:55.502Z,19.90
2022-08-22T21:26:32.674Z,19.90
2022-08-22T21:29:08.206Z,19.90
2022-08-22T21:31:48.657Z,19.90
2022-08-22T21:34:24.450Z,19.90
2022-08-22T21:36:53.634Z,19.90
2022-08-22T21:39:36.880Z,19.90
2022-08-22T21:42:03.599Z,19.90
2022-08-22T21:44:39.403Z,19.90
2022-08-22T21:47:31.152Z,19.90
2022-08-22T21:50:23.108Z,19.80
2022-08-22T21:52:55.862Z,19.80
2022-08-22T21:55:34.467Z,19.70
2022-08-22T21:58:36.114Z,19.60
2022-08-22T22:01:27.642Z,19.60
2022-08-22T22:03:55.001Z,19.50
2022-08-22T22:06:21.755Z,19.40
2022-08-22T22:08:48.974Z,19.40
2022-08-22T22:11:16.326Z,19.30
2022-08-22T22:13:43.543Z,19.30
2022-08-22T22:16:14.342Z,19.30
2022-08-22T22:18:41.189Z,19.30
2022-08-22T22:21:09.234Z,19.20
2022-08-22T22:23:35.943Z,19.20
2022-08-22T22:26:04.959Z,19.10
2022-08-22T22:28:41.018Z,19.10
2022-08-22T22:31:08.185Z,19.00
2022-08-22T22:33:38.236Z,18.90
2022-08-22T22:36:08.944Z,18.80
2022-08-22T22:38:36.835Z,18.80
2022-08-22T22:41:03.618Z,18.70
2022-08-22T22:43:30.646Z,18.70
2022-08-22T22:45:58.957Z,18.60
2022-08-22T22:48:25.878Z,18.60
2022-08-22T22:50:54.025Z,18.60
2022-08-22T22:53:38.273Z,18.50
2022-08-22T22:56:07.395Z,18.50
2022-08-22T22:58:36.848Z,18.50
2022-08-22T23:01:14.040Z,18.40
2022-08-22T23:03:41.044Z,18.40
2022-08-22T23:06:13.150Z,18.40
2022-08-22T23:08:40.318Z,18.30
2022-08-22T23:11:24.944Z,18.30
2022-08-22T23:13:52.231Z,18.20
2022-08-22T23:16:22.401Z,18.20
2022-08-22T23:18:49.964Z,18.20
2022-08-22T23:21:25.385Z,18.20
2022-08-22T23:23:54.826Z,18.20
2022-08-22T23:26:21.518Z,18.10
2022-08-22T23:28:48.636Z,18.10
2022-08-22T23:31:16.861Z,18.00
2022-08-22T23:33:44.648Z,18.00
2022-08-22T23:36:14.808Z,18.00
2022-08-22T23:38:41.813Z,17.90
2022-08-22T23:41:10.226Z,17.90
2022-08-22T23:43:40.804Z,17.80
2022-08-22T23:46:07.501Z,17.80
2022-08-22T23:48:34.268Z,17.80
2022-08-22T23:51:00.976Z,17.80
2022-08-22T23:53:29.003Z,17.70
2022-08-22T23:55:55.922Z,17.70
2022-08-22T23:58:23.341Z,17.70
